Time;durP1;ratioP1;P1;durP2;ratioP2;P2;SDS_P1;SDS_P2;PMS_P1;PMS_P2;Temp;Humidity;BMP_temperature;BMP_pressure;BME280_temperature;BME280_humidity;BME280_pressure;Samples;Min_cycle;Max_cycle;Signal;HPM_P1;HPM_P2
2021/05/16 00:01:54;;;;;;;3.85;2.70;;;12.70;87.30;;;;;;5015198;28;20038;-62
2021/05/16 00:04:20;;;;;;;3.65;2.78;;;12.80;87.30;;;;;;5018659;28;20053;-63
2021/05/16 00:06:45;;;;;;;2.97;2.67;;;12.80;87.10;;;;;;5020006;28;20076;-62
2021/05/16 00:09:11;;;;;;;3.53;2.60;;;12.90;86.90;;;;;;5030940;28;20037;-63
2021/05/16 00:11:36;;;;;;;3.03;2.50;;;12.90;86.80;;;;;;5032617;28;20033;-62
2021/05/16 00:14:02;;;;;;;3.33;2.90;;;12.90;86.60;;;;;;5021481;28;20124;-62
2021/05/16 00:16:28;;;;;;;3.72;3.03;;;12.90;86.60;;;;;;5036615;28;20827;-63
2021/05/16 00:18:53;;;;;;;3.10;2.72;;;12.80;87.00;;;;;;5044329;28;20029;-62
2021/05/16 00:21:19;;;;;;;3.33;2.75;;;12.80;87.10;;;;;;5033827;28;20491;-62
2021/05/16 00:23:45;;;;;;;7.28;3.17;;;12.80;87.10;;;;;;5033147;28;20446;-63
2021/05/16 00:26:10;;;;;;;6.75;2.92;;;12.70;87.20;;;;;;5030897;28;20072;-62
2021/05/16 00:28:36;;;;;;;2.97;2.65;;;12.70;87.30;;;;;;5041694;28;20548;-62
2021/05/16 00:31:02;;;;;;;2.90;2.60;;;12.70;87.50;;;;;;5043663;28;20108;-62
2021/05/16 00:33:27;;;;;;;2.90;2.60;;;12.70;87.60;;;;;;5034306;28;20353;-60
2021/05/16 00:35:53;;;;;;;3.33;2.70;;;12.60;87.30;;;;;;5034120;28;20041;-62
2021/05/16 00:38:18;;;;;;;3.35;2.60;;;12.60;87.80;;;;;;5030480;28;20037;-62
2021/05/16 00:40:44;;;;;;;3.22;2.80;;;12.50;88.40;;;;;;5046299;28;20527;-60
2021/05/16 00:43:11;;;;;;;3.80;2.72;;;12.50;88.40;;;;;;5039492;28;20042;-62
2021/05/16 00:45:37;;;;;;;4.20;2.70;;;12.60;88.10;;;;;;5034893;28;20041;-63
2021/05/16 00:48:05;;;;;;;3.10;2.65;;;12.70;87.90;;;;;;5032623;28;20038;-62
2021/05/16 00:50:43;;;;;;;3.50;2.75;;;12.80;87.60;;;;;;5031280;28;20037;-62
2021/05/16 00:53:10;;;;;;;6.30;2.72;;;12.80;87.50;;;;;;5047304;28;20055;-61
2021/05/16 00:55:36;;;;;;;3.00;2.70;;;12.70;87.80;;;;;;5039649;28;20079;-62
2021/05/16 00:58:04;;;;;;;3.60;2.70;;;12.70;87.70;;;;;;5038339;28;20100;-62
2021/05/16 01:00:40;;;;;;;4.28;3.15;;;12.80;87.70;;;;;;5017233;28;20044;-61
2021/05/16 01:03:06;;;;;;;3.50;2.67;;;12.80;87.70;;;;;;5050832;28;20057;-63
2021/05/16 01:05:32;;;;;;;4.35;3.08;;;12.90;87.70;;;;;;5042508;28;20124;-62
2021/05/16 01:07:58;;;;;;;4.05;2.60;;;12.90;87.60;;;;;;5040014;28;20561;-63
2021/05/16 01:10:23;;;;;;;3.70;2.92;;;12.90;87.70;;;;;;5034187;28;20436;-62
2021/05/16 01:12:52;;;;;;;3.42;2.63;;;12.90;87.50;;;;;;5041357;28;20634;-62
2021/05/16 01:15:20;;;;;;;5.20;3.13;;;12.90;87.50;;;;;;5033287;28;20044;-62
2021/05/16 01:17:46;;;;;;;3.50;3.20;;;12.80;87.70;;;;;;5044106;28;20128;-62
2021/05/16 01:20:23;;;;;;;4.68;3.55;;;12.80;87.90;;;;;;5026001;28;20030;-62
2021/05/16 01:23:02;;;;;;;5.20;3.40;;;12.80;87.80;;;;;;5037527;28;20033;-61
2021/05/16 01:25:32;;;;;;;5.53;3.78;;;12.80;88.00;;;;;;5029479;28;20033;-62
2021/05/16 01:27:58;;;;;;;6.05;3.28;;;12.70;88.10;;;;;;5046121;28;20136;-62
2021/05/16 01:30:24;;;;;;;3.45;3.13;;;12.60;88.40;;;;;;5031339;28;20397;-63
2021/05/16 01:32:51;;;;;;;4.20;3.33;;;12.60;88.50;;;;;;5044598;28;20059;-63
2021/05/16 01:35:18;;;;;;;4.32;3.50;;;12.60;88.30;;;;;;5037697;28;20041;-63
2021/05/16 01:37:43;;;;;;;3.55;3.25;;;12.60;88.50;;;;;;5033815;28;20042;-61
2021/05/16 01:40:10;;;;;;;5.55;3.40;;;12.60;88.60;;;;;;5045408;28;20389;-62
2021/05/16 01:42:39;;;;;;;5.68;3.40;;;12.50;89.30;;;;;;5044998;28;20079;-62
2021/05/16 01:45:07;;;;;;;3.70;3.30;;;12.50;89.00;;;;;;5039223;28;20021;-60
2021/05/16 01:47:33;;;;;;;10.15;3.60;;;12.60;88.30;;;;;;5038517;28;20052;-63
2021/05/16 01:50:11;;;;;;;4.85;3.78;;;12.50;88.50;;;;;;5034974;28;20029;-63
2021/05/16 01:52:39;;;;;;;4.25;3.22;;;12.50;88.80;;;;;;5047693;28;20037;-63
2021/05/16 01:55:05;;;;;;;3.67;3.22;;;12.40;89.00;;;;;;5041593;28;20396;-62
2021/05/16 01:57:31;;;;;;;6.40;3.40;;;12.40;89.30;;;;;;5038379;28;20044;-63
2021/05/16 01:59:57;;;;;;;3.50;2.72;;;12.40;89.10;;;;;;5026911;28;20065;-61
2021/05/16 02:02:23;;;;;;;3.05;2.53;;;12.30;89.20;;;;;;5013291;28;20116;-62
2021/05/16 02:04:49;;;;;;;3.10;2.60;;;12.30;89.60;;;;;;5028054;28;20450;-60
2021/05/16 02:07:15;;;;;;;5.35;2.60;;;12.20;89.70;;;;;;5028483;28;20099;-61
2021/05/16 02:09:41;;;;;;;3.90;2.60;;;12.10;90.10;;;;;;5028110;28;20038;-62
2021/05/16 02:12:08;;;;;;;3.90;2.78;;;12.10;90.30;;;;;;5012607;28;20046;-63
2021/05/16 02:14:34;;;;;;;3.63;2.80;;;12.00;90.20;;;;;;5030833;28;20037;-63
2021/05/16 02:17:02;;;;;;;3.92;2.88;;;11.80;90.80;;;;;;5041596;28;20029;-62
2021/05/16 02:19:27;;;;;;;3.60;2.90;;;11.70;91.00;;;;;;5037083;28;20037;-62
2021/05/16 02:21:54;;;;;;;3.85;2.80;;;11.60;91.00;;;;;;5024699;28;20056;-63
2021/05/16 02:24:20;;;;;;;3.25;2.92;;;11.50;91.30;;;;;;5013117;28;21438;-62
2021/05/16 02:26:46;;;;;;;4.55;2.58;;;11.50;91.40;;;;;;5016727;28;20025;-62
2021/05/16 02:29:13;;;;;;;3.10;2.63;;;11.40;91.80;;;;;;5018222;28;20038;-63
2021/05/16 02:31:38;;;;;;;3.22;2.50;;;11.40;92.10;;;;;;5031076;28;20046;-62
2021/05/16 02:34:05;;;;;;;3.42;2.67;;;11.30;92.50;;;;;;5019480;28;20033;-61
2021/05/16 02:36:31;;;;;;;3.97;2.60;;;11.30;92.80;;;;;;5023572;28;20045;-61
2021/05/16 02:38:57;;;;;;;2.88;2.58;;;11.30;92.90;;;;;;5019231;28;20047;-62
2021/05/16 02:41:23;;;;;;;2.92;2.63;;;11.30;93.30;;;;;;5032515;28;20121;-62
2021/05/16 02:43:49;;;;;;;4.63;2.75;;;11.30;93.30;;;;;;5015893;28;20041;-62
2021/05/16 02:46:15;;;;;;;4.20;2.50;;;11.20;93.70;;;;;;5017865;28;20025;-61
2021/05/16 02:48:40;;;;;;;4.72;2.88;;;11.20;93.70;;;;;;5038312;28;20042;-63
2021/05/16 02:51:06;;;;;;;2.92;2.63;;;11.20;93.90;;;;;;5015954;28;20044;-62
2021/05/16 02:53:33;;;;;;;3.50;2.67;;;11.20;94.10;;;;;;5024788;28;20087;-62
2021/05/16 02:55:59;;;;;;;2.80;2.42;;;11.20;94.00;;;;;;5033994;28;20064;-63
2021/05/16 02:58:24;;;;;;;4.07;2.60;;;11.20;94.20;;;;;;5031037;28;20033;-62
2021/05/16 03:00:50;;;;;;;2.33;2.13;;;11.30;94.10;;;;;;5046709;28;20771;-63
2021/05/16 03:03:16;;;;;;;2.55;2.22;;;11.20;94.40;;;;;;5043637;28;20037;-63
2021/05/16 03:05:41;;;;;;;3.35;2.30;;;11.10;94.60;;;;;;5034507;28;20440;-62
2021/05/16 03:08:07;;;;;;;3.42;2.47;;;11.10;94.70;;;;;;5033657;28;20064;-63
2021/05/16 03:10:33;;;;;;;2.63;2.05;;;11.10;94.50;;;;;;5039186;28;20036;-63
2021/05/16 03:12:58;;;;;;;2.53;2.25;;;11.20;94.60;;;;;;5038003;28;20055;-63
2021/05/16 03:15:24;;;;;;;5.28;2.30;;;11.20;94.40;;;;;;5031860;28;20072;-61
2021/05/16 03:17:49;;;;;;;2.47;2.28;;;11.20;94.40;;;;;;5043281;28;20041;-62
2021/05/16 03:20:15;;;;;;;2.50;2.30;;;11.20;94.40;;;;;;5028667;28;20049;-63
2021/05/16 03:22:41;;;;;;;2.90;2.13;;;11.20;94.50;;;;;;5039070;28;20037;-62
2021/05/16 03:25:07;;;;;;;2.78;2.20;;;11.20;94.50;;;;;;5032626;28;20504;-60
2021/05/16 03:27:33;;;;;;;2.35;2.20;;;11.20;95.00;;;;;;5040300;28;20382;-62
2021/05/16 03:29:59;;;;;;;2.72;2.20;;;11.10;94.70;;;;;;5036393;28;20048;-63
2021/05/16 03:32:24;;;;;;;3.35;2.55;;;11.10;94.80;;;;;;5038934;28;20095;-62
2021/05/16 03:34:50;;;;;;;4.00;2.20;;;11.10;94.80;;;;;;5038659;28;20037;-63
2021/05/16 03:37:16;;;;;;;3.47;2.40;;;11.20;94.80;;;;;;5031175;28;20037;-63
2021/05/16 03:39:42;;;;;;;2.22;1.98;;;11.20;94.60;;;;;;5032841;28;20120;-64
2021/05/16 03:42:07;;;;;;;3.28;2.30;;;11.30;94.60;;;;;;5041041;28;20113;-65
2021/05/16 03:44:33;;;;;;;3.17;1.83;;;11.30;94.70;;;;;;5038783;28;20042;-65
2021/05/16 03:46:59;;;;;;;4.97;2.20;;;11.30;94.50;;;;;;5035651;28;20025;-66
2021/05/16 03:49:25;;;;;;;3.70;2.28;;;11.30;94.70;;;;;;5029938;28;20127;-68
2021/05/16 03:51:51;;;;;;;2.22;2.03;;;11.20;94.80;;;;;;5042189;28;20524;-69
2021/05/16 03:54:17;;;;;;;3.38;2.10;;;11.20;95.00;;;;;;5038178;28;20116;-69
2021/05/16 03:56:43;;;;;;;2.83;2.30;;;11.10;95.20;;;;;;5040624;28;20104;-70
2021/05/16 03:59:09;;;;;;;3.08;2.42;;;11.10;95.30;;;;;;5032637;28;20033;-68
2021/05/16 04:01:34;;;;;;;2.75;2.17;;;11.00;95.60;;;;;;5030856;28;20037;-67
2021/05/16 04:04:00;;;;;;;2.53;2.33;;;11.10;95.70;;;;;;5011180;28;20033;-66
2021/05/16 04:06:26;;;;;;;2.15;1.95;;;11.20;95.20;;;;;;5012186;28;20030;-67
2021/05/16 04:08:51;;;;;;;2.65;2.15;;;11.20;95.50;;;;;;5011659;28;20022;-65
2021/05/16 04:11:17;;;;;;;2.85;2.22;;;11.30;95.40;;;;;;5029288;28;20073;-66
2021/05/16 04:13:43;;;;;;;2.20;2.00;;;11.30;95.20;;;;;;5011296;28;20045;-64
2021/05/16 04:16:08;;;;;;;2.20;2.00;;;11.30;95.20;;;;;;5013455;28;20030;-64
2021/05/16 04:18:34;;;;;;;2.83;2.13;;;11.20;95.00;;;;;;5011518;28;20042;-64
2021/05/16 04:21:02;;;;;;;3.45;2.25;;;11.30;95.10;;;;;;5015210;28;20100;-64
2021/05/16 04:23:27;;;;;;;2.50;2.30;;;11.30;95.10;;;;;;5011087;28;20049;-64
2021/05/16 04:25:53;;;;;;;2.58;2.10;;;11.30;95.00;;;;;;5012863;28;20049;-63
2021/05/16 04:28:19;;;;;;;4.82;3.58;;;11.20;95.00;;;;;;5026348;28;20400;-64
2021/05/16 04:30:44;;;;;;;6.53;3.95;;;11.20;95.10;;;;;;5016541;28;20042;-62
2021/05/16 04:33:10;;;;;;;5.00;4.00;;;11.30;94.90;;;;;;5037484;28;20022;-63
2021/05/16 04:35:35;;;;;;;2.50;2.30;;;11.40;94.80;;;;;;5042804;28;20022;-64
2021/05/16 04:38:01;;;;;;;2.78;2.38;;;11.50;94.80;;;;;;5040745;28;20053;-64
2021/05/16 04:40:27;;;;;;;3.42;2.53;;;11.50;94.50;;;;;;5032452;28;20381;-63
2021/05/16 04:42:52;;;;;;;3.08;2.55;;;11.40;94.70;;;;;;5045669;28;20052;-63
2021/05/16 04:45:18;;;;;;;3.08;2.50;;;11.50;94.60;;;;;;5041611;28;20073;-63
2021/05/16 04:47:45;;;;;;;5.78;3.83;;;11.60;94.50;;;;;;5035689;28;20080;-62
2021/05/16 04:50:13;;;;;;;5.63;4.38;;;11.70;94.10;;;;;;5039413;28;20033;-64
2021/05/16 04:52:38;;;;;;;4.22;2.50;;;11.80;94.10;;;;;;5045309;28;20540;-63
2021/05/16 04:55:04;;;;;;;2.60;2.28;;;11.80;94.00;;;;;;5042326;28;20029;-64
2021/05/16 04:57:30;;;;;;;3.28;2.35;;;11.80;93.90;;;;;;5035230;28;20030;-64
2021/05/16 04:59:56;;;;;;;2.45;2.25;;;11.80;93.80;;;;;;5046748;28;20025;-63
2021/05/16 05:02:22;;;;;;;5.00;2.42;;;11.80;93.90;;;;;;5045121;28;20045;-63
2021/05/16 05:04:48;;;;;;;3.13;2.67;;;11.70;93.90;;;;;;5045925;28;20051;-63
2021/05/16 05:07:13;;;;;;;3.58;2.50;;;11.70;93.90;;;;;;5039256;28;20120;-62
2021/05/16 05:09:39;;;;;;;4.00;2.42;;;11.70;93.80;;;;;;5033673;28;20101;-63
2021/05/16 05:12:05;;;;;;;2.38;2.17;;;11.70;93.70;;;;;;5038508;28;20033;-63
2021/05/16 05:14:31;;;;;;;4.00;2.28;;;11.70;93.80;;;;;;5036631;28;20038;-64
2021/05/16 05:16:56;;;;;;;3.90;2.55;;;11.80;93.70;;;;;;5038292;28;20128;-61
2021/05/16 05:19:22;;;;;;;4.13;2.42;;;11.90;93.70;;;;;;5048615;28;20566;-60
2021/05/16 05:21:48;;;;;;;4.07;2.47;;;11.90;93.40;;;;;;5032733;28;20405;-63
2021/05/16 05:24:13;;;;;;;4.43;2.63;;;12.00;93.50;;;;;;5033933;28;20104;-63
2021/05/16 05:26:39;;;;;;;3.22;2.42;;;11.80;93.90;;;;;;5035560;28;20095;-60
2021/05/16 05:29:05;;;;;;;8.57;2.92;;;11.80;93.80;;;;;;5050118;28;20025;-63
2021/05/16 05:31:31;;;;;;;3.38;2.40;;;11.90;93.40;;;;;;5046597;28;20115;-63
2021/05/16 05:33:56;;;;;;;2.63;2.35;;;11.80;93.80;;;;;;5039183;28;20029;-63
2021/05/16 05:36:22;;;;;;;4.35;2.67;;;11.80;93.90;;;;;;5036960;28;20048;-64
2021/05/16 05:38:48;;;;;;;4.75;2.25;;;11.90;93.70;;;;;;5037423;28;20053;-61
2021/05/16 05:41:14;;;;;;;6.03;3.10;;;11.80;94.00;;;;;;5042768;28;20046;-63
2021/05/16 05:43:40;;;;;;;4.03;2.50;;;11.80;93.70;;;;;;5039632;28;20034;-63
2021/05/16 05:46:06;;;;;;;4.60;2.88;;;11.80;93.70;;;;;;5037941;28;20444;-63
2021/05/16 05:48:31;;;;;;;6.70;3.20;;;11.80;93.40;;;;;;5035782;28;20041;-64
2021/05/16 05:50:58;;;;;;;8.40;2.95;;;11.70;93.10;;;;;;5034972;28;20041;-63
2021/05/16 05:53:24;;;;;;;4.78;2.63;;;11.70;92.80;;;;;;5041573;28;20044;-63
2021/05/16 05:55:49;;;;;;;7.35;2.88;;;11.70;93.00;;;;;;5040651;28;20025;-62
2021/05/16 05:58:15;;;;;;;4.38;2.72;;;11.70;92.90;;;;;;5037689;28;20501;-63
2021/05/16 06:00:40;;;;;;;7.47;3.00;;;11.70;92.50;;;;;;5037424;28;20060;-64
2021/05/16 06:03:06;;;;;;;5.35;2.55;;;11.70;92.20;;;;;;5039547;28;20040;-63
2021/05/16 06:05:31;;;;;;;5.88;2.58;;;11.70;91.60;;;;;;5046504;28;20155;-61
2021/05/16 06:07:57;;;;;;;8.60;3.03;;;11.70;91.80;;;;;;5038503;28;20033;-64
2021/05/16 06:10:24;;;;;;;7.78;3.10;;;11.70;91.70;;;;;;5032680;28;20384;-63
2021/05/16 06:12:51;;;;;;;5.00;2.88;;;11.80;91.80;;;;;;5028265;28;20500;-63
2021/05/16 06:15:16;;;;;;;6.13;2.85;;;11.90;91.70;;;;;;5034812;28;20037;-63
2021/05/16 06:17:42;;;;;;;4.45;2.63;;;12.00;91.60;;;;;;5034189;28;20037;-63
2021/05/16 06:20:08;;;;;;;6.43;3.28;;;12.10;91.70;;;;;;5034748;28;20025;-63
2021/05/16 06:22:34;;;;;;;3.90;2.47;;;12.20;91.80;;;;;;5031549;28;20448;-63
2021/05/16 06:24:59;;;;;;;6.03;2.83;;;12.30;91.40;;;;;;5035285;28;20025;-62
2021/05/16 06:27:26;;;;;;;5.93;2.67;;;12.30;90.20;;;;;;5040984;28;20400;-65
2021/05/16 06:29:52;;;;;;;6.28;2.70;;;12.30;91.20;;;;;;5047775;28;20086;-62
2021/05/16 06:32:18;;;;;;;7.70;2.92;;;12.40;90.60;;;;;;5040457;28;20030;-63
2021/05/16 06:34:43;;;;;;;5.38;2.88;;;12.50;90.10;;;;;;5041640;28;20126;-65
2021/05/16 06:37:09;;;;;;;7.32;3.35;;;12.50;89.60;;;;;;5033419;28;20072;-62
2021/05/16 06:39:35;;;;;;;9.32;2.90;;;12.50;90.10;;;;;;5042064;28;20079;-63
2021/05/16 06:42:01;;;;;;;5.15;2.80;;;12.60;88.80;;;;;;5044457;28;20042;-62
2021/05/16 06:44:26;;;;;;;5.22;3.25;;;12.40;89.80;;;;;;5048433;28;20040;-63
2021/05/16 06:46:52;;;;;;;4.05;2.42;;;12.40;88.70;;;;;;5038196;28;20041;-63
2021/05/16 06:49:18;;;;;;;5.88;2.70;;;12.50;89.30;;;;;;5030320;28;20040;-63
2021/05/16 06:51:44;;;;;;;7.28;2.85;;;12.70;89.70;;;;;;5043140;28;20028;-62
2021/05/16 06:54:10;;;;;;;7.78;2.70;;;12.80;89.50;;;;;;5040653;28;20040;-64
2021/05/16 06:56:36;;;;;;;7.45;3.20;;;12.90;89.60;;;;;;5040665;28;20037;-61
2021/05/16 06:59:03;;;;;;;6.40;2.70;;;13.00;87.50;;;;;;5035585;28;20511;-64
2021/05/16 07:01:30;;;;;;;8.10;2.90;;;12.80;88.10;;;;;;5040914;28;20040;-60
2021/05/16 07:03:55;;;;;;;7.50;3.03;;;12.60;88.90;;;;;;5047199;28;20078;-59
2021/05/16 07:06:21;;;;;;;7.82;3.58;;;12.60;89.40;;;;;;5038862;28;20168;-63
2021/05/16 07:08:47;;;;;;;4.82;3.20;;;12.70;89.20;;;;;;5027317;28;20041;-63
2021/05/16 07:11:14;;;;;;;6.93;2.97;;;12.90;88.70;;;;;;5037614;28;20074;-64
2021/05/16 07:13:39;;;;;;;8.18;4.03;;;12.90;87.50;;;;;;5036789;28;20488;-63
2021/05/16 07:16:05;;;;;;;9.65;3.10;;;12.90;86.80;;;;;;5031627;28;20045;-63
2021/05/16 07:18:31;;;;;;;7.03;3.20;;;12.80;88.20;;;;;;5044553;28;20133;-61
2021/05/16 07:20:56;;;;;;;5.80;2.67;;;12.90;86.30;;;;;;5026700;28;20044;-64
2021/05/16 07:23:22;;;;;;;9.55;3.90;;;13.00;86.40;;;;;;5017985;28;20048;-62
2021/05/16 07:25:48;;;;;;;7.45;3.00;;;13.10;87.20;;;;;;5014827;28;20056;-61
2021/05/16 07:28:13;;;;;;;11.57;3.78;;;13.00;85.50;;;;;;5015049;28;20041;-64
2021/05/16 07:30:39;;;;;;;10.18;3.45;;;13.10;86.00;;;;;;5020895;28;20145;-62
2021/05/16 07:33:05;;;;;;;7.93;3.20;;;13.20;86.60;;;;;;5015259;28;20386;-63
2021/05/16 07:35:30;;;;;;;10.07;2.85;;;13.40;86.00;;;;;;5017842;28;20032;-63
2021/05/16 07:37:56;;;;;;;6.72;2.90;;;13.30;85.70;;;;;;5025254;28;20104;-63
2021/05/16 07:40:22;;;;;;;8.15;3.08;;;13.40;85.20;;;;;;5018103;28;20041;-62
2021/05/16 07:42:50;;;;;;;5.22;2.85;;;13.50;85.80;;;;;;5023109;28;20041;-62
2021/05/16 07:45:16;;;;;;;7.40;3.20;;;13.70;85.40;;;;;;5032133;28;21768;-61
2021/05/16 07:47:42;;;;;;;6.43;3.10;;;13.80;83.80;;;;;;5014577;28;20436;-61
2021/05/16 07:50:10;;;;;;;6.70;3.10;;;13.70;82.90;;;;;;5014831;28;20038;-62
2021/05/16 07:52:36;;;;;;;7.15;3.22;;;13.70;84.20;;;;;;5022221;28;20042;-62
2021/05/16 07:55:01;;;;;;;5.72;3.50;;;13.70;82.70;;;;;;5015511;28;20466;-62
2021/05/16 07:57:28;;;;;;;8.80;2.92;;;13.50;83.30;;;;;;5031064;28;20044;-62
2021/05/16 07:59:57;;;;;;;6.50;2.55;;;13.50;83.80;;;;;;5016017;28;20030;-63
2021/05/16 08:02:22;;;;;;;6.88;2.83;;;13.70;83.50;;;;;;5015163;28;20042;-62
2021/05/16 08:04:48;;;;;;;8.38;3.15;;;13.70;84.00;;;;;;5019522;28;20086;-63
2021/05/16 08:07:14;;;;;;;6.40;2.60;;;13.80;85.10;;;;;;5016449;28;20095;-63
2021/05/16 08:09:39;;;;;;;7.80;2.90;;;13.70;83.20;;;;;;5015675;28;20033;-64
2021/05/16 08:12:05;;;;;;;9.50;4.20;;;13.80;83.90;;;;;;5014556;28;20807;-62
2021/05/16 08:14:31;;;;;;;7.30;2.72;;;14.00;84.20;;;;;;5015962;28;20038;-62
2021/05/16 08:16:57;;;;;;;9.75;3.42;;;13.90;82.10;;;;;;5018629;28;20036;-64
2021/05/16 08:19:23;;;;;;;7.45;2.90;;;13.50;83.90;;;;;;5017351;28;20493;-62
2021/05/16 08:21:49;;;;;;;10.43;4.05;;;13.50;83.60;;;;;;5016972;28;20041;-63
2021/05/16 08:24:15;;;;;;;8.38;3.78;;;13.20;85.00;;;;;;5016509;28;20037;-63
2021/05/16 08:26:41;;;;;;;6.63;2.90;;;13.30;85.10;;;;;;5023193;28;20034;-63
2021/05/16 08:29:07;;;;;;;6.43;3.05;;;13.60;84.30;;;;;;5016860;28;20076;-63
2021/05/16 08:31:36;;;;;;;5.13;2.67;;;13.80;82.80;;;;;;5028391;28;20041;-63
2021/05/16 08:34:03;;;;;;;7.72;3.00;;;14.00;82.30;;;;;;5030610;28;20369;-65
2021/05/16 08:36:33;;;;;;;8.25;2.80;;;14.10;81.20;;;;;;5037999;28;20497;-63
2021/05/16 08:38:59;;;;;;;8.82;3.60;;;14.10;81.10;;;;;;5037216;28;20049;-62
2021/05/16 08:41:25;;;;;;;5.93;2.67;;;14.10;81.50;;;;;;5036140;28;20040;-61
2021/05/16 08:43:51;;;;;;;8.07;2.83;;;14.30;80.80;;;;;;5042794;28;20531;-61
2021/05/16 08:46:16;;;;;;;6.60;2.50;;;14.50;79.60;;;;;;5035595;28;20045;-63
2021/05/16 08:48:42;;;;;;;6.72;2.75;;;14.60;78.50;;;;;;5040789;28;20571;-61
2021/05/16 08:51:09;;;;;;;7.20;2.70;;;14.60;78.60;;;;;;5032525;28;20060;-65
2021/05/16 08:53:35;;;;;;;8.77;2.88;;;14.40;78.50;;;;;;5016202;28;20390;-63
2021/05/16 08:56:04;;;;;;;4.82;2.42;;;14.40;78.30;;;;;;5038445;28;20080;-63
2021/05/16 08:58:31;;;;;;;8.55;2.88;;;14.50;77.60;;;;;;5022574;28;20413;-64
2021/05/16 09:00:58;;;;;;;8.43;3.17;;;14.60;77.50;;;;;;5021617;28;20040;-63
2021/05/16 09:03:24;;;;;;;5.82;2.83;;;14.60;78.20;;;;;;5018375;28;20029;-63
2021/05/16 09:05:54;;;;;;;8.35;3.17;;;14.60;78.50;;;;;;5016272;28;20052;-63
2021/05/16 09:08:26;;;;;;;6.75;3.05;;;14.70;78.40;;;;;;5018316;28;20041;-64
2021/05/16 09:10:57;;;;;;;7.55;3.10;;;14.60;78.60;;;;;;5013669;28;20067;-64
2021/05/16 09:13:26;;;;;;;10.27;2.95;;;14.50;79.30;;;;;;5020054;28;20045;-64
2021/05/16 09:16:10;;;;;;;8.90;3.30;;;14.60;78.30;;;;;;5038463;28;20502;-62
2021/05/16 09:18:44;;;;;;;10.48;3.75;;;14.60;78.20;;;;;;5017137;28;20034;-64
2021/05/16 09:21:30;;;;;;;6.22;2.75;;;14.20;78.80;;;;;;5014716;28;20029;-64
2021/05/16 09:24:05;;;;;;;9.20;3.13;;;14.20;79.60;;;;;;5017131;28;20050;-64
2021/05/16 09:26:35;;;;;;;7.10;3.20;;;14.20;78.20;;;;;;5016737;28;20026;-63
2021/05/16 09:29:41;;;;;;;12.52;2.88;;;14.30;78.90;;;;;;5015132;28;20065;-63
2021/05/16 09:32:08;;;;;;;7.53;3.47;;;14.70;78.60;;;;;;5034646;28;20033;-64
2021/05/16 09:34:34;;;;;;;9.98;3.35;;;14.80;78.40;;;;;;5021311;28;20096;-63
2021/05/16 09:37:01;;;;;;;7.15;3.00;;;14.90;78.30;;;;;;5016943;28;20036;-64
2021/05/16 09:39:31;;;;;;;12.68;3.45;;;14.90;77.50;;;;;;5030138;28;20049;-63
2021/05/16 09:42:07;;;;;;;9.02;3.30;;;15.20;76.90;;;;;;5042200;28;20045;-63
2021/05/16 09:44:36;;;;;;;7.13;2.95;;;15.10;77.60;;;;;;5040605;28;20124;-63
2021/05/16 09:47:10;;;;;;;10.88;3.40;;;15.10;77.30;;;;;;5038190;28;20025;-64
2021/05/16 09:49:36;;;;;;;10.73;3.20;;;15.30;76.90;;;;;;5029025;28;20516;-63
2021/05/16 09:52:13;;;;;;;9.27;3.50;;;15.40;75.20;;;;;;5040793;28;20033;-65
2021/05/16 09:55:08;;;;;;;6.82;3.15;;;15.40;75.60;;;;;;5033247;28;20370;-64
2021/05/16 09:57:41;;;;;;;7.22;3.70;;;15.20;77.30;;;;;;5029750;28;20044;-64
2021/05/16 10:00:15;;;;;;;8.68;3.20;;;15.00;77.90;;;;;;5026393;28;20037;-63
2021/05/16 10:02:42;;;;;;;11.10;3.47;;;15.10;77.00;;;;;;5025539;28;20026;-63
2021/05/16 10:05:10;;;;;;;7.85;2.92;;;15.20;76.70;;;;;;5036613;28;20037;-65
2021/05/16 10:07:41;;;;;;;9.52;3.20;;;15.30;74.20;;;;;;5039742;28;20029;-64
2021/05/16 10:10:08;;;;;;;8.90;3.60;;;15.30;73.80;;;;;;5022498;28;20060;-64
2021/05/16 10:12:37;;;;;;;7.70;3.40;;;15.50;75.40;;;;;;5036792;28;20033;-62
2021/05/16 10:15:36;;;;;;;10.13;3.58;;;15.90;73.20;;;;;;5027292;28;20030;-64
2021/05/16 10:18:07;;;;;;;7.90;3.35;;;16.10;72.60;;;;;;5033559;28;20100;-63
2021/05/16 10:20:33;;;;;;;8.55;3.58;;;16.10;72.20;;;;;;5034098;28;20651;-64
2021/05/16 10:23:04;;;;;;;5.82;3.28;;;16.20;72.50;;;;;;5036733;28;20553;-63
2021/05/16 10:25:40;;;;;;;8.25;3.55;;;16.10;72.00;;;;;;5029443;28;20536;-63
2021/05/16 10:28:06;;;;;;;10.52;3.65;;;15.70;73.30;;;;;;5034040;28;20037;-64
2021/05/16 10:30:32;;;;;;;7.88;3.58;;;15.50;76.70;;;;;;5033182;28;20802;-62
2021/05/16 10:33:00;;;;;;;7.70;3.25;;;15.40;80.00;;;;;;5032898;28;20034;-64
2021/05/16 10:35:27;;;;;;;6.93;3.03;;;15.10;81.20;;;;;;5040054;28;20036;-63
2021/05/16 10:37:54;;;;;;;7.15;3.15;;;15.10;80.90;;;;;;5037046;28;20120;-64
2021/05/16 10:40:23;;;;;;;8.70;2.92;;;15.40;80.40;;;;;;5042206;28;20490;-64
2021/05/16 10:42:51;;;;;;;8.52;3.35;;;15.70;79.50;;;;;;5041844;28;20116;-62
2021/05/16 10:45:21;;;;;;;9.75;3.15;;;15.90;77.50;;;;;;5029494;28;20042;-64
2021/05/16 10:47:50;;;;;;;7.95;3.10;;;16.00;77.80;;;;;;5031563;28;20038;-63
2021/05/16 10:50:25;;;;;;;5.95;3.20;;;15.90;78.20;;;;;;5045570;28;20033;-64
2021/05/16 10:53:02;;;;;;;6.88;3.13;;;16.10;78.40;;;;;;5035689;28;20036;-64
2021/05/16 10:55:39;;;;;;;7.03;3.35;;;16.40;77.70;;;;;;5034931;28;20040;-62
2021/05/16 10:58:06;;;;;;;5.03;2.67;;;16.60;76.20;;;;;;5028166;28;20029;-64
2021/05/16 11:00:40;;;;;;;6.00;3.10;;;16.50;76.50;;;;;;5033008;28;20035;-63
2021/05/16 11:03:11;;;;;;;6.50;3.00;;;16.60;77.80;;;;;;5023567;28;20285;-63
2021/05/16 11:05:40;;;;;;;6.32;3.17;;;16.90;75.10;;;;;;5039724;28;20041;-62
2021/05/16 11:08:15;;;;;;;6.43;2.95;;;17.10;74.70;;;;;;5018810;28;20379;-64
2021/05/16 11:10:42;;;;;;;7.97;2.90;;;17.30;73.80;;;;;;5027526;28;20041;-63
2021/05/16 11:13:21;;;;;;;9.18;3.30;;;17.20;73.90;;;;;;5028832;28;20717;-64
2021/05/16 11:15:48;;;;;;;6.28;3.38;;;17.10;73.20;;;;;;5046801;28;20087;-64
2021/05/16 11:18:18;;;;;;;6.20;3.08;;;17.20;72.60;;;;;;5034659;28;20077;-65
2021/05/16 11:20:48;;;;;;;7.53;3.00;;;17.50;70.90;;;;;;5041197;28;20036;-63
2021/05/16 11:23:21;;;;;;;6.30;3.00;;;17.50;69.30;;;;;;5045033;28;20497;-64
2021/05/16 11:26:03;;;;;;;7.72;2.97;;;17.40;68.40;;;;;;5024584;28;20135;-64
2021/05/16 11:28:33;;;;;;;5.55;2.90;;;17.30;68.70;;;;;;5029269;28;20056;-64
2021/05/16 11:30:59;;;;;;;6.85;2.78;;;17.30;68.50;;;;;;5035148;28;20037;-63
2021/05/16 11:33:32;;;;;;;5.45;2.95;;;17.60;66.90;;;;;;5044688;28;20039;-64
2021/05/16 11:36:06;;;;;;;4.97;2.75;;;17.50;66.90;;;;;;5027480;28;20107;-64
2021/05/16 11:38:34;;;;;;;6.57;3.03;;;17.60;67.00;;;;;;5037617;28;20029;-63
2021/05/16 11:41:01;;;;;;;5.03;3.17;;;17.80;66.90;;;;;;5034149;28;20041;-64
2021/05/16 11:43:32;;;;;;;6.38;3.00;;;17.50;67.60;;;;;;5031368;28;20026;-64
2021/05/16 11:45:59;;;;;;;7.15;3.92;;;17.50;68.20;;;;;;5031038;28;20033;-64
2021/05/16 11:48:33;;;;;;;6.32;2.80;;;17.50;67.90;;;;;;5035057;28;20409;-64
2021/05/16 11:51:03;;;;;;;;;;;17.50;67.60;;;;;;5034488;28;20148;-64
2021/05/16 11:53:28;;;;;;;5.70;3.00;;;17.40;67.10;;;;;;5040432;28;20011;-65
2021/05/16 11:55:54;;;;;;;6.45;3.10;;;17.40;68.30;;;;;;5035254;28;20742;-64
2021/05/16 11:58:21;;;;;;;6.15;3.35;;;17.60;68.40;;;;;;5030029;28;20512;-65
2021/05/16 12:00:50;;;;;;;7.47;3.60;;;17.60;69.20;;;;;;5036131;28;20136;-64
2021/05/16 12:03:16;;;;;;;7.28;3.45;;;17.90;69.00;;;;;;5024533;28;20108;-64
2021/05/16 12:06:03;;;;;;;9.55;3.30;;;18.00;64.50;;;;;;5033846;28;20117;-64
2021/05/16 12:08:28;;;;;;;6.20;2.88;;;18.00;64.20;;;;;;5037007;28;20024;-65
2021/05/16 12:11:12;;;;;;;4.75;2.40;;;17.90;63.10;;;;;;5032380;28;20065;-65
2021/05/16 12:13:38;;;;;;;3.20;2.35;;;17.80;64.50;;;;;;5026121;28;20033;-65
2021/05/16 12:16:18;;;;;;;3.58;2.20;;;17.80;64.40;;;;;;5031090;28;20216;-65
2021/05/16 12:18:45;;;;;;;4.63;2.60;;;17.60;65.90;;;;;;5044839;28;20021;-65
2021/05/16 12:21:12;;;;;;;3.83;2.45;;;17.60;66.40;;;;;;5041775;28;20068;-63
2021/05/16 12:23:39;;;;;;;5.75;3.15;;;17.50;66.00;;;;;;5025687;28;20508;-65
2021/05/16 12:26:06;;;;;;;4.45;2.60;;;17.40;66.70;;;;;;5026654;28;20493;-64
2021/05/16 12:28:32;;;;;;;3.42;2.53;;;17.30;65.50;;;;;;5045282;28;20091;-65
2021/05/16 12:30:59;;;;;;;8.38;5.07;;;17.60;65.70;;;;;;5043199;28;20067;-64
2021/05/16 12:33:25;;;;;;;6.95;2.53;;;17.90;65.80;;;;;;5039867;28;20099;-64
2021/05/16 12:35:54;;;;;;;5.35;2.85;;;17.70;65.70;;;;;;5032175;28;20528;-65
2021/05/16 12:38:19;;;;;;;4.53;2.90;;;17.60;67.10;;;;;;5032434;28;20025;-64
2021/05/16 12:40:46;;;;;;;4.95;3.22;;;18.00;67.10;;;;;;5046520;28;20195;-64
2021/05/16 12:43:14;;;;;;;3.95;2.67;;;18.50;66.80;;;;;;5038788;28;20033;-66
2021/05/16 12:45:41;;;;;;;5.07;2.67;;;18.30;66.30;;;;;;5035751;28;20045;-64
2021/05/16 12:48:18;;;;;;;3.95;2.70;;;18.10;67.00;;;;;;5034183;28;20028;-64